MicroStrategy Pre-Tax Profit Margin 2010-2023 | MSTR

Current and historical pre-tax profit margin for MicroStrategy (MSTR) from 2010 to 2023. Pre-tax profit margin can be defined as earnings before taxes as a portion of total revenue. MicroStrategy pre-tax profit margin for the three months ending December 31, 2023 was .
MicroStrategy Pre-Tax Profit Margin Historical Data
Date TTM Revenue TTM Pre-Tax Income Pre-Tax Margin
2023-12-31 $0.50B $-0.13B -25.25%
2023-09-30 $0.50B $-0.28B -55.16%
2023-06-30 $0.50B $-0.25B -49.40%
2023-03-31 $0.50B $-1.14B -226.10%
2022-12-31 $0.50B $-1.32B -264.93%
2022-09-30 $0.50B $-1.26B -250.70%
2022-06-30 $0.50B $-1.31B -260.32%
2022-03-31 $0.51B $-0.81B -158.97%
2021-12-31 $0.51B $-0.81B -158.71%
2021-09-30 $0.51B $-0.67B -131.56%
2021-06-30 $0.51B $-0.63B -124.70%
2021-03-31 $0.49B $-0.21B -41.87%
2020-12-31 $0.48B $-0.02B -4.17%
2020-09-30 $0.48B $-0.01B -1.24%
2020-06-30 $0.48B $0.03B 5.46%
2020-03-31 $0.48B $0.05B 10.14%
2019-12-31 $0.49B $0.04B 8.01%
2019-09-30 $0.49B $0.03B 6.39%
2019-06-30 $0.49B $0.03B 6.78%
2019-03-31 $0.49B $0.01B 2.24%
2018-12-31 $0.50B $0.02B 4.02%
2018-09-30 $0.50B $0.04B 7.17%
2018-06-30 $0.51B $0.05B 9.09%
2018-03-31 $0.50B $0.05B 10.52%
2017-12-31 $0.50B $0.07B 14.31%
2017-09-30 $0.51B $0.10B 19.06%
2017-06-30 $0.51B $0.11B 20.66%
2017-03-31 $0.52B $0.12B 22.44%
2016-12-31 $0.51B $0.12B 22.37%
2016-09-30 $0.52B $0.12B 23.06%
2016-06-30 $0.52B $0.12B 23.45%
2016-03-31 $0.53B $0.13B 24.71%
2015-12-31 $0.53B $0.14B 25.99%
2015-09-30 $0.54B $0.13B 23.69%
2015-06-30 $0.56B $0.09B 16.70%
2015-03-31 $0.57B $0.05B 8.48%
2014-12-31 $0.58B $0.01B 2.07%
2014-09-30 $0.60B $-0.01B -1.17%
2014-06-30 $0.59B $0.00B 0.51%
2014-03-31 $0.58B $0.01B 2.40%
2013-12-31 $0.58B $0.02B 2.78%
2013-09-30 $0.57B $0.01B 1.94%
2013-06-30 $0.56B $0.01B 1.79%
2013-03-31 $0.56B $0.02B 4.31%
2012-12-31 $0.57B $0.03B 5.84%
2012-09-30 $0.54B $0.04B 6.80%
2012-06-30 $0.55B $0.04B 6.55%
2012-03-31 $0.55B $0.03B 4.88%
2011-12-31 $0.54B $0.03B 4.84%
2011-09-30 $0.54B $0.03B 5.55%
2011-06-30 $0.51B $0.03B 6.23%
2011-03-31 $0.48B $0.05B 9.50%
2010-12-31 $0.46B $0.06B 12.31%
2010-09-30 $0.42B $0.06B 14.93%
2010-06-30 $0.41B $0.09B 20.68%
2010-03-31 $0.39B $0.08B 21.23%
2009-12-31 $0.38B $0.09B 22.75%
Sector Industry Market Cap Revenue
Computer and Technology Computer Software $26.331B $0.496B
MicroStrategy Incorporated, a leading worldwide provider of business intelligence software, today announced that GT Nexus has selected MicroStrategy to power the customer-facing analytics and reporting capabilities on its Global Logistics portal. The GT Nexus portal is an on demand technology platform that is used by importers, exporters, transportation carriers, suppliers, banks, and other partners to manage goods that are moving around the world. The GT Nexus system captures and stores hard-to-get data associated with global supply chains, and then fuels a range of Web applications that can be used by constituents to lower supply chain costs and improve control. MicroStrategy will help GT Nexus to deliver a wide range of analytics and reporting capabilities to its customers, which include Home Depot, Kmart, Xerox, Weyerhaeuser, and American Eagle Outfitters.
Stock Name Country Market Cap PE Ratio
Microsoft (MSFT) United States $3179.707B 38.69
Oracle (ORCL) United States $338.725B 27.57
Salesforce (CRM) United States $290.176B 48.41
Adobe (ADBE) United States $216.957B 36.28
Intuit (INTU) United States $175.759B 58.94
Synopsys (SNPS) United States $85.700B 61.82
Cadence Design Systems (CDNS) United States $84.421B 76.95
Dassault Systemes SA (DASTY) France $57.365B 37.60
Autodesk (ADSK) United States $51.563B 50.75
ANSYS (ANSS) United States $29.691B 50.09
PTC (PTC) United States $21.791B 64.18
SS&C Technologies Holdings (SSNC) United States $15.208B 14.97
Manhattan Associates (MANH) United States $14.755B 84.99
Open Text (OTEX) Canada $9.788B 10.50
Descartes Systems Group (DSGX) Canada $7.664B 67.20
Trend Micro (TMICY) Japan $7.320B 64.95
Pegasystems (PEGA) United States $5.238B 71.76
CommVault Systems (CVLT) United States $4.287B 76.50
Blackbaud (BLKB) United States $4.063B 36.35
ACI Worldwide (ACIW) United States $3.496B 17.95
Progress Software (PRGS) United States $2.267B 14.19
Verint Systems (VRNT) United States $1.945B 17.95
BlackBerry (BB) Canada $1.880B 0.00
Sapiens (SPNS) Israel $1.747B 24.75
PROS Holdings (PRO) United States $1.716B 0.00
Simulations Plus (SLP) United States $0.956B 70.37
Magic Software Enterprises (MGIC) Israel $0.576B 11.85
Rand Worldwide (RWWI) United States $0.573B 0.00
American Software (AMSWA) United States $0.397B 33.19
Canaan (CAN) China $0.294B 0.00
OptimizeRx (OPRX) United States $0.200B 0.00
Rigetti Computing (RGTI) United States $0.199B 0.00
Icad Inc (ICAD) United States $0.045B 0.00
NetSol Technologies (NTWK) United States $0.031B 0.00
Neonode (NEON) Sweden $0.023B 0.00
Smith Micro Software (SMSI) United States $0.023B 0.00
Hanryu Holdings (HRYU) South Korea $0.021B 0.00
Wetouch Technology (WETH) $0.019B 0.00
GSE Systems (GVP) United States $0.010B 0.00
SAP SE (SAP) Germany $0.000B 48.99